Silver Gate, Montana
Current Conditions -  °F | °C
As of 2:53 PM on Monday 20 Oct 2014 (Local Time) from KLVM Reporting Station
Clear Clear  
Wind Chill: 78°   Ceiling: Unl
Heat Index: 78°   Visibility: 10mi
Dew Point: 29°   Wind: 15mph
Humidity: 17%   Direction: 220°SW
Pressure: 29.89"   Gusts: 24mph
Location:  45.01°N, 109.99°W
Report Text: KLVM 202053Z AUTO 22013G21KT 10SM CLR 26/M02 A2989 RMK AO2 SLP091 T02561017 56022
Loading
Personal Weather Stations






























Interactive Weather Map
Tropical Storm Tracking
New forecast layout! Learn more

10-Day Weather Forecast

Advertisements
Track Severe Weather on mobile